N239BL KCAK-KTOL
Flight info
| Callsign | N239BL |
|---|---|
| Flight time | 0h 39m |
| Altitude | 18000 |
| Route | ZZBEE |
| Aircraft | PC12/L-SDFGRWY/S |
Departure
| Time | 2026-04-21 00:02 |
|---|---|
| Airport | Akron Canton Regional Airport (KCAK) |
Arrival
| Time | 2026-04-21 00:42 |
|---|---|
| Airport | Eugene F. Kranz Toledo Express Airport (KTOL) |
| Time | Latitude | Longitude | Altitude | Speed | Heading |
|---|---|---|---|---|---|
| 2026-04-20 23:41 | 40.91819 | -81.43436 | 1219 ft | 0 kts | 189° |
| 2026-04-20 23:54 | 40.91821 | -81.43473 | 1219 ft | 11 kts | 318° |
| 2026-04-20 23:54 | 40.91842 | -81.43556 | 1219 ft | 13 kts | 219° |
| 2026-04-20 23:54 | 40.91745 | -81.43674 | 1219 ft | 16 kts | 225° |
| 2026-04-20 23:54 | 40.91679 | -81.43803 | 1219 ft | 15 kts | 266° |
| 2026-04-20 23:55 | 40.91605 | -81.43911 | 1219 ft | 22 kts | 204° |
| 2026-04-20 23:55 | 40.91471 | -81.43939 | 1219 ft | 18 kts | 169° |
| 2026-04-20 23:55 | 40.91368 | -81.43883 | 1219 ft | 15 kts | 143° |
| 2026-04-20 23:55 | 40.91315 | -81.43870 | 1219 ft | 16 kts | 195° |
| 2026-04-20 23:56 | 40.91194 | -81.43938 | 1219 ft | 19 kts | 204° |
| 2026-04-20 23:56 | 40.91061 | -81.43970 | 1219 ft | 19 kts | 184° |
| 2026-04-20 23:56 | 40.90925 | -81.43979 | 1218 ft | 17 kts | 182° |
| 2026-04-20 23:56 | 40.90813 | -81.43983 | 1218 ft | 16 kts | 181° |
| 2026-04-20 23:57 | 40.90738 | -81.44012 | 1217 ft | 8 kts | 239° |
| 2026-04-20 23:57 | 40.90734 | -81.44025 | 1216 ft | 0 kts | 263° |
| 2026-04-21 00:01 | 40.90733 | -81.44036 | 1215 ft | 8 kts | 263° |
| 2026-04-21 00:01 | 40.90749 | -81.44138 | 1210 ft | 0 kts | 343° |
| 2026-04-21 00:01 | 40.90778 | -81.44133 | 1210 ft | 11 kts | 2° |
| 2026-04-21 00:02 | 40.91019 | -81.44118 | 1214 ft | 69 kts | 3° |
| 2026-04-21 00:02 | 40.91687 | -81.44077 | 1308 ft | 112 kts | 2° |
| 2026-04-21 00:02 | 40.92506 | -81.43942 | 1854 ft | 123 kts | 7° |
| 2026-04-21 00:02 | 40.93386 | -81.43674 | 2453 ft | 147 kts | 12° |
| 2026-04-21 00:03 | 40.94549 | -81.43395 | 2753 ft | 174 kts | 5° |
| 2026-04-21 00:03 | 40.95701 | -81.43206 | 3793 ft | 166 kts | 4° |
| 2026-04-21 00:03 | 40.96796 | -81.43691 | 4321 ft | 180 kts | 313° |
| 2026-04-21 00:03 | 40.97212 | -81.45220 | 5025 ft | 179 kts | 278° |
| 2026-04-21 00:04 | 40.97500 | -81.46822 | 5802 ft | 179 kts | 286° |
| 2026-04-21 00:04 | 40.97981 | -81.48327 | 6588 ft | 178 kts | 298° |
| 2026-04-21 00:04 | 40.98564 | -81.49770 | 7337 ft | 178 kts | 297° |
| 2026-04-21 00:04 | 40.99099 | -81.51248 | 8082 ft | 179 kts | 296° |
| 2026-04-21 00:05 | 40.99621 | -81.52746 | 8813 ft | 180 kts | 296° |
| 2026-04-21 00:05 | 41.00157 | -81.54283 | 9308 ft | 193 kts | 297° |
| 2026-04-21 00:05 | 41.00745 | -81.55961 | 9578 ft | 204 kts | 297° |
| 2026-04-21 00:05 | 41.01338 | -81.57667 | 10074 ft | 204 kts | 297° |
| 2026-04-21 00:06 | 41.01919 | -81.59336 | 10724 ft | 195 kts | 297° |
| 2026-04-21 00:06 | 41.02486 | -81.60965 | 11251 ft | 196 kts | 297° |
| 2026-04-21 00:06 | 41.03058 | -81.62603 | 11743 ft | 197 kts | 297° |
| 2026-04-21 00:06 | 41.03632 | -81.64251 | 12244 ft | 197 kts | 297° |
| 2026-04-21 00:07 | 41.04206 | -81.65904 | 12777 ft | 198 kts | 297° |
| 2026-04-21 00:07 | 41.04785 | -81.67566 | 13295 ft | 199 kts | 297° |
| 2026-04-21 00:07 | 41.05365 | -81.69236 | 13801 ft | 200 kts | 297° |
| 2026-04-21 00:07 | 41.05948 | -81.70915 | 14271 ft | 201 kts | 297° |
| 2026-04-21 00:08 | 41.06526 | -81.72584 | 14774 ft | 196 kts | 297° |
| 2026-04-21 00:08 | 41.07096 | -81.74226 | 15216 ft | 197 kts | 298° |
| 2026-04-21 00:08 | 41.07669 | -81.75878 | 15651 ft | 198 kts | 298° |
| 2026-04-21 00:08 | 41.08243 | -81.77535 | 16095 ft | 198 kts | 298° |
| 2026-04-21 00:09 | 41.08819 | -81.79198 | 16565 ft | 197 kts | 298° |
| 2026-04-21 00:09 | 41.09381 | -81.80826 | 17166 ft | 193 kts | 298° |
| 2026-04-21 00:09 | 41.09945 | -81.82454 | 17659 ft | 195 kts | 298° |
| 2026-04-21 00:09 | 41.10517 | -81.84107 | 18023 ft | 203 kts | 298° |
| 2026-04-21 00:10 | 41.11131 | -81.85875 | 18023 ft | 219 kts | 298° |
| 2026-04-21 00:10 | 41.11771 | -81.87726 | 18025 ft | 228 kts | 298° |
| 2026-04-21 00:10 | 41.12435 | -81.89657 | 18025 ft | 230 kts | 298° |
| 2026-04-21 00:10 | 41.13078 | -81.91533 | 18020 ft | 218 kts | 298° |
| 2026-04-21 00:11 | 41.13703 | -81.93348 | 18015 ft | 215 kts | 298° |
| 2026-04-21 00:11 | 41.14328 | -81.95158 | 18012 ft | 216 kts | 298° |
| 2026-04-21 00:11 | 41.14953 | -81.96973 | 18008 ft | 217 kts | 298° |
| 2026-04-21 00:11 | 41.15579 | -81.98794 | 18010 ft | 217 kts | 298° |
| 2026-04-21 00:12 | 41.16201 | -82.00604 | 18010 ft | 217 kts | 298° |
| 2026-04-21 00:12 | 41.16828 | -82.02428 | 18010 ft | 217 kts | 298° |
| 2026-04-21 00:12 | 41.17454 | -82.04253 | 18009 ft | 217 kts | 298° |
| 2026-04-21 00:12 | 41.18083 | -82.06088 | 17883 ft | 221 kts | 298° |
| 2026-04-21 00:13 | 41.18724 | -82.07954 | 17489 ft | 220 kts | 298° |
| 2026-04-21 00:13 | 41.19345 | -82.09774 | 17081 ft | 215 kts | 298° |
| 2026-04-21 00:13 | 41.19960 | -82.11568 | 16689 ft | 213 kts | 298° |
| 2026-04-21 00:13 | 41.20572 | -82.13356 | 16305 ft | 212 kts | 297° |
| 2026-04-21 00:14 | 41.21183 | -82.15142 | 15926 ft | 212 kts | 297° |
| 2026-04-21 00:14 | 41.21790 | -82.16922 | 15540 ft | 211 kts | 297° |
| 2026-04-21 00:14 | 41.22398 | -82.18702 | 15136 ft | 212 kts | 297° |
| 2026-04-21 00:14 | 41.23004 | -82.20478 | 14721 ft | 211 kts | 297° |
| 2026-04-21 00:15 | 41.23609 | -82.22251 | 14310 ft | 210 kts | 297° |
| 2026-04-21 00:15 | 41.24209 | -82.24012 | 13864 ft | 209 kts | 297° |
| 2026-04-21 00:15 | 41.24806 | -82.25764 | 13450 ft | 207 kts | 297° |
| 2026-04-21 00:15 | 41.25397 | -82.27503 | 13051 ft | 206 kts | 297° |
| 2026-04-21 00:16 | 41.25987 | -82.29235 | 12657 ft | 205 kts | 297° |
| 2026-04-21 00:16 | 41.26574 | -82.30963 | 12268 ft | 205 kts | 297° |
| 2026-04-21 00:16 | 41.27159 | -82.32685 | 11884 ft | 205 kts | 297° |
| 2026-04-21 00:16 | 41.27744 | -82.34408 | 11498 ft | 204 kts | 296° |
| 2026-04-21 00:17 | 41.28327 | -82.36128 | 11130 ft | 204 kts | 296° |
| 2026-04-21 00:17 | 41.28911 | -82.37849 | 10762 ft | 204 kts | 296° |
| 2026-04-21 00:17 | 41.29494 | -82.39568 | 10397 ft | 204 kts | 296° |
| 2026-04-21 00:17 | 41.29879 | -82.40706 | 10113 ft | 204 kts | 296° |
| 2026-04-21 00:18 | 41.30460 | -82.42422 | 9711 ft | 202 kts | 296° |
| 2026-04-21 00:18 | 41.31035 | -82.44123 | 9311 ft | 201 kts | 296° |
| 2026-04-21 00:18 | 41.31607 | -82.45813 | 8918 ft | 200 kts | 296° |
| 2026-04-21 00:18 | 41.32175 | -82.47496 | 8526 ft | 199 kts | 295° |
| 2026-04-21 00:19 | 41.32741 | -82.49171 | 8133 ft | 198 kts | 295° |
| 2026-04-21 00:19 | 41.33304 | -82.50837 | 7755 ft | 196 kts | 295° |
| 2026-04-21 00:19 | 41.33858 | -82.52483 | 7493 ft | 196 kts | 295° |
| 2026-04-21 00:19 | 41.34418 | -82.54144 | 7242 ft | 197 kts | 295° |
| 2026-04-21 00:20 | 41.34979 | -82.55807 | 7020 ft | 196 kts | 295° |
| 2026-04-21 00:20 | 41.35531 | -82.57448 | 7014 ft | 194 kts | 295° |
| 2026-04-21 00:20 | 41.36274 | -82.59644 | 7018 ft | 197 kts | 296° |
| 2026-04-21 00:20 | 41.36686 | -82.60752 | 7020 ft | 198 kts | 297° |
| 2026-04-21 00:21 | 41.37309 | -82.62385 | 7028 ft | 198 kts | 297° |
| 2026-04-21 00:21 | 41.37921 | -82.64028 | 7021 ft | 198 kts | 296° |
| 2026-04-21 00:21 | 41.38527 | -82.65674 | 7025 ft | 198 kts | 296° |
| 2026-04-21 00:21 | 41.39133 | -82.67321 | 7022 ft | 198 kts | 296° |
| 2026-04-21 00:22 | 41.39739 | -82.68967 | 7022 ft | 198 kts | 296° |
| 2026-04-21 00:22 | 41.40337 | -82.70592 | 7014 ft | 198 kts | 296° |
| 2026-04-21 00:22 | 41.40943 | -82.72238 | 7008 ft | 198 kts | 296° |
| 2026-04-21 00:22 | 41.41553 | -82.73897 | 6890 ft | 199 kts | 296° |
| 2026-04-21 00:23 | 41.42156 | -82.75539 | 6763 ft | 197 kts | 296° |
| 2026-04-21 00:23 | 41.42757 | -82.77174 | 6628 ft | 196 kts | 296° |
| 2026-04-21 00:23 | 41.43356 | -82.78805 | 6494 ft | 196 kts | 295° |
| 2026-04-21 00:23 | 41.43956 | -82.80443 | 6359 ft | 197 kts | 294° |
| 2026-04-21 00:24 | 41.44558 | -82.82085 | 6219 ft | 197 kts | 294° |
| 2026-04-21 00:24 | 41.45160 | -82.83726 | 6085 ft | 197 kts | 294° |
| 2026-04-21 00:24 | 41.45761 | -82.85368 | 5952 ft | 197 kts | 294° |
| 2026-04-21 00:24 | 41.46362 | -82.87009 | 5819 ft | 197 kts | 294° |
| 2026-04-21 00:25 | 41.46964 | -82.88653 | 5688 ft | 197 kts | 294° |
| 2026-04-21 00:25 | 41.47564 | -82.90295 | 5551 ft | 197 kts | 294° |
| 2026-04-21 00:25 | 41.48165 | -82.91938 | 5420 ft | 197 kts | 294° |
| 2026-04-21 00:25 | 41.48766 | -82.93586 | 5262 ft | 198 kts | 293° |
| 2026-04-21 00:26 | 41.49368 | -82.95235 | 5131 ft | 198 kts | 293° |
| 2026-04-21 00:26 | 41.49970 | -82.96886 | 4999 ft | 198 kts | 293° |
| 2026-04-21 00:26 | 41.50569 | -82.98527 | 4966 ft | 197 kts | 293° |
| 2026-04-21 00:26 | 41.51171 | -83.00183 | 4969 ft | 199 kts | 293° |
| 2026-04-21 00:27 | 41.51777 | -83.01847 | 4970 ft | 200 kts | 293° |
| 2026-04-21 00:27 | 41.52385 | -83.03516 | 4973 ft | 200 kts | 293° |
| 2026-04-21 00:27 | 41.52992 | -83.05184 | 4975 ft | 200 kts | 293° |
| 2026-04-21 00:27 | 41.53604 | -83.06869 | 4813 ft | 202 kts | 293° |
| 2026-04-21 00:28 | 41.54212 | -83.08539 | 4625 ft | 199 kts | 293° |
| 2026-04-21 00:28 | 41.54814 | -83.10200 | 4439 ft | 199 kts | 293° |
| 2026-04-21 00:28 | 41.55417 | -83.11860 | 4254 ft | 198 kts | 293° |
| 2026-04-21 00:28 | 41.56018 | -83.13517 | 4071 ft | 198 kts | 293° |
| 2026-04-21 00:29 | 41.56617 | -83.15172 | 3894 ft | 198 kts | 293° |
| 2026-04-21 00:29 | 41.57213 | -83.16818 | 3709 ft | 202 kts | 294° |
| 2026-04-21 00:29 | 41.57822 | -83.18498 | 3531 ft | 199 kts | 294° |
| 2026-04-21 00:29 | 41.58422 | -83.20156 | 3346 ft | 199 kts | 294° |
| 2026-04-21 00:30 | 41.59024 | -83.21821 | 3162 ft | 199 kts | 294° |
| 2026-04-21 00:30 | 41.59626 | -83.23487 | 2988 ft | 199 kts | 294° |
| 2026-04-21 00:30 | 41.60222 | -83.25136 | 2987 ft | 197 kts | 294° |
| 2026-04-21 00:30 | 41.60799 | -83.26733 | 2981 ft | 185 kts | 294° |
| 2026-04-21 00:31 | 41.61349 | -83.28257 | 2980 ft | 181 kts | 294° |
| 2026-04-21 00:31 | 41.61892 | -83.29766 | 2978 ft | 180 kts | 294° |
| 2026-04-21 00:31 | 41.62433 | -83.31270 | 2974 ft | 180 kts | 294° |
| 2026-04-21 00:31 | 41.62975 | -83.32775 | 2974 ft | 179 kts | 294° |
| 2026-04-21 00:32 | 41.63517 | -83.34279 | 2974 ft | 180 kts | 294° |
| 2026-04-21 00:32 | 41.64060 | -83.35787 | 2973 ft | 180 kts | 294° |
| 2026-04-21 00:32 | 41.64603 | -83.37298 | 2973 ft | 180 kts | 294° |
| 2026-04-21 00:32 | 41.65147 | -83.38811 | 2972 ft | 181 kts | 294° |
| 2026-04-21 00:33 | 41.65691 | -83.40327 | 2973 ft | 181 kts | 294° |
| 2026-04-21 00:33 | 41.66235 | -83.41839 | 2972 ft | 180 kts | 294° |
| 2026-04-21 00:33 | 41.66777 | -83.43351 | 2971 ft | 180 kts | 294° |
| 2026-04-21 00:33 | 41.67320 | -83.44865 | 2966 ft | 180 kts | 294° |
| 2026-04-21 00:34 | 41.67863 | -83.46379 | 2966 ft | 181 kts | 294° |
| 2026-04-21 00:34 | 41.68399 | -83.47897 | 2963 ft | 180 kts | 290° |
| 2026-04-21 00:34 | 41.68478 | -83.49472 | 2961 ft | 161 kts | 263° |
| 2026-04-21 00:34 | 41.68225 | -83.50899 | 2963 ft | 162 kts | 249° |
| 2026-04-21 00:35 | 41.67818 | -83.52281 | 2953 ft | 155 kts | 248° |
| 2026-04-21 00:35 | 41.67427 | -83.53547 | 2967 ft | 144 kts | 247° |
| 2026-04-21 00:35 | 41.67034 | -83.54795 | 2964 ft | 147 kts | 247° |
| 2026-04-21 00:35 | 41.66636 | -83.56055 | 2965 ft | 147 kts | 247° |
| 2026-04-21 00:36 | 41.66239 | -83.57314 | 2962 ft | 147 kts | 247° |
| 2026-04-21 00:36 | 41.65846 | -83.58573 | 2962 ft | 147 kts | 248° |
| 2026-04-21 00:36 | 41.65451 | -83.59828 | 2963 ft | 146 kts | 247° |
| 2026-04-21 00:36 | 41.65055 | -83.61083 | 2963 ft | 147 kts | 247° |
| 2026-04-21 00:37 | 41.64662 | -83.62346 | 2963 ft | 147 kts | 247° |
| 2026-04-21 00:37 | 41.64267 | -83.63599 | 2964 ft | 146 kts | 247° |
| 2026-04-21 00:37 | 41.63881 | -83.64821 | 2992 ft | 140 kts | 246° |
| 2026-04-21 00:37 | 41.63510 | -83.66012 | 2993 ft | 135 kts | 247° |
| 2026-04-21 00:38 | 41.63165 | -83.67107 | 2995 ft | 120 kts | 246° |
| 2026-04-21 00:38 | 41.62841 | -83.68120 | 2855 ft | 116 kts | 246° |
| 2026-04-21 00:38 | 41.62539 | -83.69051 | 2542 ft | 102 kts | 246° |
| 2026-04-21 00:38 | 41.62272 | -83.69936 | 2374 ft | 105 kts | 248° |
| 2026-04-21 00:39 | 41.62006 | -83.70861 | 2200 ft | 108 kts | 250° |
| 2026-04-21 00:39 | 41.61748 | -83.71783 | 2104 ft | 103 kts | 247° |
| 2026-04-21 00:39 | 41.61459 | -83.72689 | 1977 ft | 107 kts | 245° |
| 2026-04-21 00:39 | 41.61154 | -83.73594 | 1829 ft | 105 kts | 243° |
| 2026-04-21 00:40 | 41.60854 | -83.74456 | 1723 ft | 102 kts | 246° |
| 2026-04-21 00:40 | 41.60592 | -83.75337 | 1589 ft | 103 kts | 248° |
| 2026-04-21 00:40 | 41.60309 | -83.76227 | 1381 ft | 103 kts | 246° |
| 2026-04-21 00:40 | 41.60028 | -83.77106 | 1183 ft | 103 kts | 247° |
| 2026-04-21 00:41 | 41.59737 | -83.77997 | 987 ft | 104 kts | 248° |
| 2026-04-21 00:41 | 41.59472 | -83.78877 | 829 ft | 98 kts | 248° |
| 2026-04-21 00:41 | 41.59211 | -83.79685 | 703 ft | 92 kts | 247° |
| 2026-04-21 00:41 | 41.58988 | -83.80381 | 675 ft | 67 kts | 246° |
| 2026-04-21 00:42 | 41.58860 | -83.80787 | 676 ft | 27 kts | 249° |
| 2026-04-21 00:42 | 41.58773 | -83.81058 | 677 ft | 31 kts | 248° |
| 2026-04-21 00:42 | 41.58731 | -83.81231 | 678 ft | 13 kts | 268° |
| 2026-04-21 00:42 | 41.58789 | -83.81295 | 679 ft | 12 kts | 332° |
| 2026-04-21 00:43 | 41.58851 | -83.81353 | 679 ft | 12 kts | 296° |
| 2026-04-21 00:43 | 41.58816 | -83.81495 | 680 ft | 22 kts | 245° |
| 2026-04-21 00:43 | 41.58766 | -83.81673 | 681 ft | 22 kts | 250° |
| 2026-04-21 00:43 | 41.58688 | -83.81877 | 680 ft | 23 kts | 250° |
| 2026-04-21 00:44 | 41.58638 | -83.82059 | 683 ft | 14 kts | 238° |
| 2026-04-21 00:44 | 41.58616 | -83.82154 | 683 ft | 8 kts | 279° |
| 2026-04-21 00:44 | 41.58661 | -83.82213 | 683 ft | 11 kts | 294° |
| 2026-04-21 00:45 | 41.58636 | -83.82245 | 683 ft | 2 kts | 156° |
| 2026-04-21 00:45 | 41.58635 | -83.82245 | 683 ft | 0 kts | 155° |